Tensho — JD4153 — position and weather

sailwx.info

Track history (hours):
 
Tides and Currents Weather Stations Pressure Air Temp Water Temp Dewpoint Dewpoint Depression Visibility Wind Speed Wind Dir Waves Ship Positions

Tensho

Last reported at 2018-Apr-19 11:21 UTC. Time now 2018-Apr-20 11:02 UTC.
Position N 34°29' E 138°18'.

Length 62 m; draft 5.3 m.

Type: Cargo ship. MMSI: 431009101.

Date/timePositionNaut miles runAvg speedWind from/ knotsBaromVisibWave heightAir tempDewpointWater temp
2018-Apr-19 11:21N 34°29' E 138°18'510.3
2018-Apr-19 10:52N 34°30' E 138°24'410.1
2018-Apr-19 10:29N 34°31' E 138°28'6 9.7
2018-Apr-19 09:51N 34°32' E 138°36'3 9.7
2018-Apr-19 09:30N 34°33' E 138°40'6 9.9
2018-Apr-19 08:54N 34°34' E 138°47'4 9.9
2018-Apr-19 08:28N 34°35' E 138°52'610.9
2018-Apr-19 07:53N 34°38' E 138°59'611.2
2018-Apr-19 07:19N 34°43' E 139°03'510.1
2018-Apr-19 06:51N 34°47' E 139°06'4 9.3
2018-Apr-19 06:28N 34°50' E 139°09'4 9.5
2018-Apr-19 06:00N 34°52' E 139°13'5 9.6
2018-Apr-19 05:30N 34°55' E 139°19'5 9.4
2018-Apr-19 04:58N 34°57' E 139°24'4 9.2
2018-Apr-19 04:30N 34°60' E 139°28'5 9.5
2018-Apr-19 04:00N 35°02' E 139°33'510.3
2018-Apr-19 03:30N 35°05' E 139°38'510.4
2018-Apr-19 03:00N 35°08' E 139°43'611.3
2018-Apr-19 02:30N 35°14' E 139°46'611.1
2018-Apr-19 02:00N 35°19' E 139°43'510.5
2018-Apr-19 01:30N 35°24' E 139°43'510.1
2018-Apr-19 01:01N 35°29' E 139°42'2 2.8
2018-Apr-19 00:23N 35°30' E 139°43'0 0.0
2018-Apr-19 00:00N 35°30' E 139°43'0 0.0
2018-Apr-18 23:29N 35°30' E 139°43'0 0.0
2018-Apr-18 22:53N 35°30' E 139°43'0 0.0
2018-Apr-18 22:29N 35°30' E 139°43'0 0.0
2018-Apr-18 22:00N 35°30' E 139°43'3 5.8
2018-Apr-18 21:31N 35°27' E 139°43'4 8.1
2018-Apr-18 20:58N 35°29' E 139°48'0 0.0
2018-Apr-18 20:28N 35°29' E 139°48'0 0.0
2018-Apr-18 19:58N 35°29' E 139°48'0 0.0
2018-Apr-18 19:28N 35°29' E 139°48'0 0.0
2018-Apr-18 18:58N 35°29' E 139°48'0 0.0
2018-Apr-18 18:28N 35°29' E 139°48'0 0.1
2018-Apr-18 17:58N 35°29' E 139°48'0 0.0
2018-Apr-18 17:28N 35°29' E 139°48'0 0.0
2018-Apr-18 16:58N 35°29' E 139°48'0 0.0
2018-Apr-18 16:19N 35°29' E 139°48'0 0.0
2018-Apr-18 15:58N 35°29' E 139°48'0 0.0
2018-Apr-18 15:28N 35°29' E 139°48'0 0.0
2018-Apr-18 14:58N 35°29' E 139°48'0 0.0
2018-Apr-18 14:28N 35°29' E 139°48'2 3.7
2018-Apr-18 14:00N 35°27' E 139°47'611.0
2018-Apr-18 13:30N 35°22' E 139°45'5 9.8
2018-Apr-18 13:00N 35°17' E 139°46'510.0
2018-Apr-18 12:31N 35°12' E 139°47'510.7
2018-Apr-18 12:00N 35°07' E 139°44'510.8
2018-Apr-18 11:30N 35°03' E 139°40'611.0
2018-Apr-18 11:00N 34°59' E 139°35'711.4
2018-Apr-18 10:23N 34°55' E 139°29'510.7
2018-Apr-18 09:57N 34°52' E 139°24'910.6
2018-Apr-18 09:06N 34°47' E 139°15'110.9
2018-Apr-18 09:00N 34°46' E 139°14'1110.2
2018-Apr-18 07:58N 34°40' E 139°03'4 8.8
2018-Apr-18 07:29N 34°38' E 138°59'4 8.5
2018-Apr-18 06:58N 34°35' E 138°55'5 9.6
2018-Apr-18 06:28N 34°35' E 138°49'610.4
2018-Apr-18 05:51N 34°40' E 138°44'310.0
2018-Apr-18 05:30N 34°44' E 138°43'510.7
2018-Apr-18 05:00N 34°49' E 138°43'510.8
2018-Apr-18 04:30N 34°54' E 138°43'510.9
2018-Apr-18 04:01N 34°60' E 138°45'5 9.7
2018-Apr-18 03:30N 35°03' E 138°49'4 7.0
2018-Apr-18 02:58N 35°02' E 138°54'0 0.0
2018-Apr-18 02:25N 35°02' E 138°54'0 0.0
2018-Apr-18 01:49N 35°02' E 138°54'0 0.0
2018-Apr-18 01:25N 35°02' E 138°54'0 0.0
2018-Apr-18 00:58N 35°02' E 138°54'0 0.0
2018-Apr-18 00:28N 35°02' E 138°54'0 0.0
2018-Apr-17 23:52N 35°02' E 138°54'0 0.0
2018-Apr-17 23:28N 35°02' E 138°54'0 0.0
2018-Apr-17 22:56N 35°02' E 138°54'0 0.0
2018-Apr-17 22:30N 35°02' E 138°54'0 0.1
2018-Apr-17 22:01N 35°02' E 138°54'4 7.4
2018-Apr-17 21:30N 35°03' E 138°49'4 8.0
2018-Apr-17 21:00N 35°01' E 138°45'5 9.9
2018-Apr-17 20:30N 34°56' E 138°44'510.2
2018-Apr-17 20:00N 34°51' E 138°43'510.6
2018-Apr-17 19:30N 34°45' E 138°43'611.1
2018-Apr-17 18:58N 34°39' E 138°44'511.1
2018-Apr-17 18:30N 34°36' E 138°49'511.0
2018-Apr-17 18:01N 34°36' E 138°55'611.4
2018-Apr-17 17:30N 34°39' E 139°01'811.5
2018-Apr-17 16:49N 34°46' E 139°06'911.0
2018-Apr-17 16:03N 34°52' E 139°13'110.8
2018-Apr-17 15:58N 34°53' E 139°14'510.3
2018-Apr-17 15:30N 34°55' E 139°19'5 9.8
2018-Apr-17 15:00N 34°58' E 139°24'5 9.3
2018-Apr-17 14:30N 35°00' E 139°29'5 9.2
2018-Apr-17 14:00N 35°02' E 139°33'5 9.8
2018-Apr-17 13:30N 35°05' E 139°39'510.6
2018-Apr-17 13:00N 35°08' E 139°44'611.5
2018-Apr-17 12:30N 35°14' E 139°46'611.7
2018-Apr-17 12:00N 35°19' E 139°43'611.2
2018-Apr-17 11:30N 35°24' E 139°43'5 9.7
2018-Apr-17 11:00N 35°29' E 139°43'1 1.7
2018-Apr-17 10:30N 35°30' E 139°43'0 0.0
2018-Apr-17 10:00N 35°30' E 139°43'0 0.0
2018-Apr-17 09:30N 35°30' E 139°43'0 0.0
2018-Apr-17 08:57N 35°30' E 139°43'0 0.0
2018-Apr-17 08:27N 35°30' E 139°43'0 0.1
2018-Apr-17 08:01N 35°30' E 139°43'2 4.5
2018-Apr-17 07:31N 35°28' E 139°42'1 2.1
2018-Apr-17 06:58N 35°27' E 139°42'0 0.0
2018-Apr-17 06:28N 35°27' E 139°42'0 0.0
2018-Apr-17 05:58N 35°27' E 139°42'0 0.0
2018-Apr-17 05:28N 35°27' E 139°42'0 0.0
2018-Apr-17 04:58N 35°27' E 139°42'0 0.0
2018-Apr-17 04:28N 35°27' E 139°42'0 0.0
2018-Apr-17 03:58N 35°27' E 139°42'0 0.0
2018-Apr-17 03:28N 35°27' E 139°42'0 0.0
2018-Apr-17 02:58N 35°27' E 139°42'0 0.0
2018-Apr-17 02:28N 35°27' E 139°42'0 0.0
2018-Apr-17 01:58N 35°27' E 139°42'0 0.0
2018-Apr-17 01:28N 35°27' E 139°42'0 0.1
2018-Apr-17 00:58N 35°27' E 139°42'3 5.5
2018-Apr-17 00:30N 35°28' E 139°39'0 0.2
2018-Apr-17 00:00N 35°28' E 139°39'0 0.0
2018-Apr-16 23:30N 35°28' E 139°39'0 0.0
2018-Apr-16 23:00N 35°28' E 139°39'0 0.0
2018-Apr-16 22:30N 35°28' E 139°39'0 0.0
2018-Apr-16 22:00N 35°28' E 139°39'0 0.0
2018-Apr-16 21:30N 35°28' E 139°39'0 0.0
2018-Apr-16 21:00N 35°28' E 139°39'2 4.4
2018-Apr-16 20:30N 35°27' E 139°41'0 0.6
2018-Apr-16 19:58N 35°27' E 139°42'2 5.4
2018-Apr-16 19:30N 35°25' E 139°43'510.0
2018-Apr-16 19:00N 35°20' E 139°43'510.5
2018-Apr-16 18:30N 35°15' E 139°47'510.1
2018-Apr-16 18:00N 35°10' E 139°46'5 9.3
2018-Apr-16 17:30N 35°06' E 139°43'5 9.6
2018-Apr-16 17:01N 35°03' E 139°38'510.2
2018-Apr-16 16:31N 34°60' E 139°34'610.9
2018-Apr-16 15:58N 34°56' E 139°28'711.2
2018-Apr-16 15:18N 34°51' E 139°21'510.9
2018-Apr-16 14:53N 34°48' E 139°17'1010.7
2018-Apr-16 13:55N 34°42' E 139°07'3 6.9
2018-Apr-16 13:26N 34°40' E 139°04'610.4
2018-Apr-16 12:50N 34°36' E 138°58'1110.5
2018-Apr-16 11:44N 34°34' E 138°44'310.0
2018-Apr-16 11:29N 34°33' E 138°41'610.5
2018-Apr-16 10:56N 34°33' E 138°34'510.2
2018-Apr-16 10:29N 34°33' E 138°28'510.5
2018-Apr-16 09:59N 34°32' E 138°22'511.0
2018-Apr-16 09:30N 34°31' E 138°16'163 8.8
2018-Apr-15 14:56N 33°49' E 135°05'510.7
2018-Apr-15 14:30N 33°52' E 135°02'510.7
2018-Apr-15 14:00N 33°56' E 134°58'610.7
2018-Apr-15 13:24N 34°01' E 134°53'410.6
2018-Apr-15 13:00N 34°04' E 134°49'510.4
2018-Apr-15 12:29N 34°08' E 134°45'510.5
2018-Apr-15 12:00N 34°12' E 134°41'5 9.7
2018-Apr-15 11:30N 34°15' E 134°37'4 8.3
2018-Apr-15 10:59N 34°17' E 134°32'0 0.0
2018-Apr-15 10:26N 34°17' E 134°32'0 0.0
2018-Apr-15 09:56N 34°17' E 134°32'0 0.0
2018-Apr-15 09:29N 34°17' E 134°32'0 0.0
2018-Apr-15 08:56N 34°17' E 134°32'0 0.0
2018-Apr-15 08:26N 34°17' E 134°32'0 0.0
2018-Apr-15 07:50N 34°17' E 134°32'0 0.0
2018-Apr-15 07:26N 34°17' E 134°32'0 0.0
2018-Apr-15 06:56N 34°17' E 134°32'2 3.9
2018-Apr-15 06:31N 34°18' E 134°30'510.3
2018-Apr-15 06:00N 34°20' E 134°25'610.5
2018-Apr-15 05:29N 34°22' E 134°18'611.5
2018-Apr-15 04:56N 34°25' E 134°11'7610.6
2018-Apr-14 21:46N 33°60' E 132°45'311.4
2018-Apr-14 21:30N 33°57' E 132°43'611.3
2018-Apr-14 20:57N 33°53' E 132°37'610.8
2018-Apr-14 20:22N 33°49' E 132°32'410.7
2018-Apr-14 19:59N 33°46' E 132°29'610.5
2018-Apr-14 19:25N 33°42' E 132°24'410.2
2018-Apr-14 19:01N 33°38' E 132°20'5 9.9
2018-Apr-14 18:30N 33°35' E 132°16'14 9.5
2018-Apr-14 17:01N 33°25' E 132°04'0 9.5
2018-Apr-14 16:59N 33°25' E 132°04'4 8.6
2018-Apr-14 16:30N 33°22' E 132°01'3 6.5
2018-Apr-14 16:00N 33°18' E 132°00'8 7.8
2018-Apr-14 15:00N 33°11' E 131°57'2 0.4
2018-Apr-14 09:56N 33°11' E 131°55'10 8.9
2018-Apr-14 08:46N 33°21' E 131°50'2 9.1
2018-Apr-14 08:30N 33°23' E 131°50'4 8.4
2018-Apr-14 08:00N 33°27' E 131°49'4 7.8
2018-Apr-14 07:30N 33°31' E 131°48'4 8.3
2018-Apr-14 07:00N 33°35' E 131°46'5 9.2
2018-Apr-14 06:27N 33°39' E 131°43'4 9.0
2018-Apr-14 05:59N 33°42' E 131°39'510.0
2018-Apr-14 05:30N 33°43' E 131°33'510.9
2018-Apr-14 05:00N 33°44' E 131°27'510.8
2018-Apr-14 04:30N 33°46' E 131°21'510.9
2018-Apr-14 04:00N 33°47' E 131°14'510.7
2018-Apr-14 03:30N 33°48' E 131°08'510.7
2018-Apr-14 03:00N 33°48' E 131°01'1 2.9
2018-Apr-14 02:30N 33°47' E 131°00'0 0.0
2018-Apr-14 02:00N 33°47' E 131°00'0 0.0
2018-Apr-14 01:30N 33°47' E 131°00'0 0.0
2018-Apr-14 01:00N 33°47' E 131°00'0 0.0
2018-Apr-14 00:27N 33°47' E 131°00'0 0.0
2018-Apr-14 00:00N 33°47' E 131°00'0 0.0
2018-Apr-13 23:30N 33°47' E 131°00'0 0.0
2018-Apr-13 23:00N 33°47' E 131°00'0 0.9
2018-Apr-13 22:30N 33°47' E 131°01'3 5.6
2018-Apr-13 22:00N 33°48' E 131°04'0 0.1
2018-Apr-13 21:30N 33°48' E 131°04'0 0.0
2018-Apr-13 21:00N 33°48' E 131°04'0 0.0
2018-Apr-13 20:30N 33°48' E 131°04'0 0.0
2018-Apr-13 20:00N 33°48' E 131°04'0 0.0
2018-Apr-13 19:30N 33°48' E 131°04'0 0.0
2018-Apr-13 19:00N 33°48' E 131°04'0 0.0
2018-Apr-13 18:30N 33°48' E 131°04'0 0.0
2018-Apr-13 18:00N 33°48' E 131°04'0 0.0
2018-Apr-13 17:27N 33°48' E 131°04'0 0.0
2018-Apr-13 17:00N 33°48' E 131°04'0 0.0
2018-Apr-13 16:30N 33°48' E 131°04'4 7.4
2018-Apr-13 16:00N 33°52' E 131°04'511.0
2018-Apr-13 15:31N 33°57' E 131°02'5 9.4
2018-Apr-13 15:00N 33°57' E 130°56'3 6.8
2018-Apr-13 14:30N 33°56' E 130°53'5 9.8
2018-Apr-13 14:00N 33°58' E 130°47'510.5
2018-Apr-13 13:30N 33°57' E 130°41'510.3
2018-Apr-13 13:00N 33°57' E 130°35'510.0
2018-Apr-13 12:30N 33°56' E 130°29'5 9.6
2018-Apr-13 12:00N 33°52' E 130°25'5 9.8
2018-Apr-13 11:30N 33°48' E 130°21'9 8.9
2018-Apr-13 10:30N 33°42' E 130°13'4 8.3
2018-Apr-13 10:00N 33°40' E 130°09'4 8.2
2018-Apr-13 09:30N 33°37' E 130°05'4 7.9
2018-Apr-13 09:00N 33°36' E 130°01'4 8.0
2018-Apr-13 08:30N 33°35' E 129°56'8 0.6
2018-Apr-12 19:07N 33°43' E 129°59'312.4
2018-Apr-12 18:51N 33°44' E 130°02'512.5
2018-Apr-12 18:25N 33°47' E 130°08'512.3
2018-Apr-12 18:00N 33°50' E 130°13'612.2
2018-Apr-12 17:30N 33°53' E 130°19'611.7
2018-Apr-12 17:00N 33°56' E 130°25'611.6
2018-Apr-12 16:30N 33°57' E 130°32'611.2
2018-Apr-12 16:00N 33°57' E 130°39'510.8
2018-Apr-12 15:30N 33°58' E 130°45'510.5
2018-Apr-12 15:00N 33°57' E 130°51'3 6.3
2018-Apr-12 14:30N 33°54' E 130°52'0 0.0
2018-Apr-12 13:58N 33°54' E 130°52'0 0.0
2018-Apr-11 09:26N 33°54' E 130°52'3 7.2
2018-Apr-11 09:01N 33°55' E 130°56'510.5
2018-Apr-11 08:30N 33°59' E 131°00'611.1
2018-Apr-11 08:01N 33°56' E 131°06'510.7
2018-Apr-11 07:30N 33°55' E 131°12'2 4.3
2018-Apr-11 06:56N 33°57' E 131°14'0 0.0
2018-Apr-11 06:26N 33°57' E 131°14'0 0.0
2018-Apr-11 05:56N 33°57' E 131°14'0 0.0
2018-Apr-11 05:20N 33°57' E 131°14'0 0.0
2018-Apr-11 04:56N 33°57' E 131°14'0 0.0
2018-Apr-11 04:29N 33°57' E 131°14'0 0.0
2018-Apr-11 03:59N 33°57' E 131°14'0 0.0
2018-Apr-11 03:29N 33°57' E 131°14'0 0.0
2018-Apr-11 02:50N 33°57' E 131°14'0 0.0
2018-Apr-11 02:29N 33°57' E 131°14'0 0.0
2018-Apr-11 01:59N 33°57' E 131°14'0 0.0
2018-Apr-11 01:26N 33°57' E 131°14'0 0.0
2018-Apr-11 00:44N 33°57' E 131°14'0 0.0
2018-Apr-11 00:26N 33°57' E 131°14'0 0.0
2018-Apr-10 23:59N 33°57' E 131°14'0 0.0
2018-Apr-10 23:26N 33°57' E 131°14'0 0.0
2018-Apr-10 22:59N 33°57' E 131°14'0 0.0
2018-Apr-10 22:29N 33°57' E 131°14'1 1.7
2018-Apr-10 22:00N 33°56' E 131°14'0 0.0
2018-Apr-10 04:00N 33°56' E 131°14'0 0.0
2018-Apr-10 03:30N 33°56' E 131°14'0 0.0
2018-Apr-10 03:00N 33°56' E 131°14'0 0.0
2018-Apr-10 02:30N 33°56' E 131°14'0 0.0
2018-Apr-10 01:57N 33°56' E 131°14'0 0.0
2018-Apr-10 01:30N 33°56' E 131°14'0 0.0
2018-Apr-10 01:00N 33°56' E 131°14'0 0.0
2018-Apr-10 00:27N 33°56' E 131°14'0 0.0
2018-Apr-09 23:57N 33°56' E 131°14'0 0.0
2018-Apr-09 23:30N 33°56' E 131°14'0 0.0
2018-Apr-09 23:00N 33°56' E 131°14'0 0.0
2018-Apr-09 22:30N 33°56' E 131°14'0 0.0
2018-Apr-09 22:00N 33°56' E 131°14'0 0.0
2018-Apr-09 21:30N 33°56' E 131°14'0 0.0
2018-Apr-09 21:00N 33°56' E 131°14'0 0.0
2018-Apr-09 20:30N 33°56' E 131°14'0 0.0
2018-Apr-09 20:00N 33°56' E 131°14'0 0.0
2018-Apr-09 19:30N 33°56' E 131°14'0 0.0
2018-Apr-09 19:00N 33°56' E 131°14'0 0.0
2018-Apr-09 18:30N 33°56' E 131°14'0 0.0
2018-Apr-09 18:00N 33°56' E 131°14'0 0.0
2018-Apr-09 17:30N 33°56' E 131°14'0 0.0
2018-Apr-09 17:00N 33°56' E 131°14'0 0.0
2018-Apr-09 16:30N 33°56' E 131°14'0 0.0
2018-Apr-09 16:00N 33°56' E 131°14'0 0.0
2018-Apr-09 15:30N 33°56' E 131°14'0 0.0
2018-Apr-09 15:00N 33°56' E 131°14'0 0.0
2018-Apr-09 14:30N 33°56' E 131°14'0 0.0
2018-Apr-09 14:00N 33°56' E 131°14'0 0.0
2018-Apr-09 13:30N 33°56' E 131°14'0 0.0
2018-Apr-09 13:00N 33°56' E 131°14'0 0.0
2018-Apr-09 12:30N 33°56' E 131°14'0 0.0
2018-Apr-09 12:00N 33°56' E 131°14'0 0.0
2018-Apr-09 11:30N 33°56' E 131°14'  
Track history (hours):
 
Tides and Currents Weather Stations Pressure Air Temp Water Temp Dewpoint Dewpoint Depression Visibility Wind Speed Wind Dir Waves Ship Positions

Tensho

Last reported at 2018-Apr-19 11:21 UTC. Time now 2018-Apr-20 11:02 UTC.
Position N 34°29' E 138°18'.

Length 62 m; draft 5.3 m.

Type: Cargo ship. MMSI: 431009101.

Date/timePositionNaut miles runAvg speedWind from/ knotsBaromVisibWave heightAir tempDewpointWater temp
2018-Apr-19 11:21N 34°29' E 138°18'510.3
2018-Apr-19 10:52N 34°30' E 138°24'410.1
2018-Apr-19 10:29N 34°31' E 138°28'6 9.7
2018-Apr-19 09:51N 34°32' E 138°36'3 9.7
2018-Apr-19 09:30N 34°33' E 138°40'6 9.9
2018-Apr-19 08:54N 34°34' E 138°47'4 9.9
2018-Apr-19 08:28N 34°35' E 138°52'610.9
2018-Apr-19 07:53N 34°38' E 138°59'611.2
2018-Apr-19 07:19N 34°43' E 139°03'510.1
2018-Apr-19 06:51N 34°47' E 139°06'4 9.3
2018-Apr-19 06:28N 34°50' E 139°09'4 9.5
2018-Apr-19 06:00N 34°52' E 139°13'5 9.6
2018-Apr-19 05:30N 34°55' E 139°19'5 9.4
2018-Apr-19 04:58N 34°57' E 139°24'4 9.2
2018-Apr-19 04:30N 34°60' E 139°28'5 9.5
2018-Apr-19 04:00N 35°02' E 139°33'510.3
2018-Apr-19 03:30N 35°05' E 139°38'510.4
2018-Apr-19 03:00N 35°08' E 139°43'611.3
2018-Apr-19 02:30N 35°14' E 139°46'611.1
2018-Apr-19 02:00N 35°19' E 139°43'510.5
2018-Apr-19 01:30N 35°24' E 139°43'510.1
2018-Apr-19 01:01N 35°29' E 139°42'2 2.8
2018-Apr-19 00:23N 35°30' E 139°43'0 0.0
2018-Apr-19 00:00N 35°30' E 139°43'0 0.0
2018-Apr-18 23:29N 35°30' E 139°43'0 0.0
2018-Apr-18 22:53N 35°30' E 139°43'0 0.0
2018-Apr-18 22:29N 35°30' E 139°43'0 0.0
2018-Apr-18 22:00N 35°30' E 139°43'3 5.8
2018-Apr-18 21:31N 35°27' E 139°43'4 8.1
2018-Apr-18 20:58N 35°29' E 139°48'0 0.0
2018-Apr-18 20:28N 35°29' E 139°48'0 0.0
2018-Apr-18 19:58N 35°29' E 139°48'0 0.0
2018-Apr-18 19:28N 35°29' E 139°48'0 0.0
2018-Apr-18 18:58N 35°29' E 139°48'0 0.0
2018-Apr-18 18:28N 35°29' E 139°48'0 0.1
2018-Apr-18 17:58N 35°29' E 139°48'0 0.0
2018-Apr-18 17:28N 35°29' E 139°48'0 0.0
2018-Apr-18 16:58N 35°29' E 139°48'0 0.0
2018-Apr-18 16:19N 35°29' E 139°48'0 0.0
2018-Apr-18 15:58N 35°29' E 139°48'0 0.0
2018-Apr-18 15:28N 35°29' E 139°48'0 0.0
2018-Apr-18 14:58N 35°29' E 139°48'0 0.0
2018-Apr-18 14:28N 35°29' E 139°48'2 3.7
2018-Apr-18 14:00N 35°27' E 139°47'611.0
2018-Apr-18 13:30N 35°22' E 139°45'5 9.8
2018-Apr-18 13:00N 35°17' E 139°46'510.0
2018-Apr-18 12:31N 35°12' E 139°47'510.7
2018-Apr-18 12:00N 35°07' E 139°44'510.8
2018-Apr-18 11:30N 35°03' E 139°40'611.0
2018-Apr-18 11:00N 34°59' E 139°35'711.4
2018-Apr-18 10:23N 34°55' E 139°29'510.7
2018-Apr-18 09:57N 34°52' E 139°24'910.6
2018-Apr-18 09:06N 34°47' E 139°15'110.9
2018-Apr-18 09:00N 34°46' E 139°14'1110.2
2018-Apr-18 07:58N 34°40' E 139°03'4 8.8
2018-Apr-18 07:29N 34°38' E 138°59'4 8.5
2018-Apr-18 06:58N 34°35' E 138°55'5 9.6
2018-Apr-18 06:28N 34°35' E 138°49'610.4
2018-Apr-18 05:51N 34°40' E 138°44'310.0
2018-Apr-18 05:30N 34°44' E 138°43'510.7
2018-Apr-18 05:00N 34°49' E 138°43'510.8
2018-Apr-18 04:30N 34°54' E 138°43'510.9
2018-Apr-18 04:01N 34°60' E 138°45'5 9.7
2018-Apr-18 03:30N 35°03' E 138°49'4 7.0
2018-Apr-18 02:58N 35°02' E 138°54'0 0.0
2018-Apr-18 02:25N 35°02' E 138°54'0 0.0
2018-Apr-18 01:49N 35°02' E 138°54'0 0.0
2018-Apr-18 01:25N 35°02' E 138°54'0 0.0
2018-Apr-18 00:58N 35°02' E 138°54'0 0.0
2018-Apr-18 00:28N 35°02' E 138°54'0 0.0
2018-Apr-17 23:52N 35°02' E 138°54'0 0.0
2018-Apr-17 23:28N 35°02' E 138°54'0 0.0
2018-Apr-17 22:56N 35°02' E 138°54'0 0.0
2018-Apr-17 22:30N 35°02' E 138°54'0 0.1
2018-Apr-17 22:01N 35°02' E 138°54'4 7.4
2018-Apr-17 21:30N 35°03' E 138°49'4 8.0
2018-Apr-17 21:00N 35°01' E 138°45'5 9.9
2018-Apr-17 20:30N 34°56' E 138°44'510.2
2018-Apr-17 20:00N 34°51' E 138°43'510.6
2018-Apr-17 19:30N 34°45' E 138°43'611.1
2018-Apr-17 18:58N 34°39' E 138°44'511.1
2018-Apr-17 18:30N 34°36' E 138°49'511.0
2018-Apr-17 18:01N 34°36' E 138°55'611.4
2018-Apr-17 17:30N 34°39' E 139°01'811.5
2018-Apr-17 16:49N 34°46' E 139°06'911.0
2018-Apr-17 16:03N 34°52' E 139°13'110.8
2018-Apr-17 15:58N 34°53' E 139°14'510.3
2018-Apr-17 15:30N 34°55' E 139°19'5 9.8
2018-Apr-17 15:00N 34°58' E 139°24'5 9.3
2018-Apr-17 14:30N 35°00' E 139°29'5 9.2
2018-Apr-17 14:00N 35°02' E 139°33'5 9.8
2018-Apr-17 13:30N 35°05' E 139°39'510.6
2018-Apr-17 13:00N 35°08' E 139°44'611.5
2018-Apr-17 12:30N 35°14' E 139°46'611.7
2018-Apr-17 12:00N 35°19' E 139°43'611.2
2018-Apr-17 11:30N 35°24' E 139°43'5 9.7
2018-Apr-17 11:00N 35°29' E 139°43'1 1.7
2018-Apr-17 10:30N 35°30' E 139°43'0 0.0
2018-Apr-17 10:00N 35°30' E 139°43'0 0.0
2018-Apr-17 09:30N 35°30' E 139°43'0 0.0
2018-Apr-17 08:57N 35°30' E 139°43'0 0.0
2018-Apr-17 08:27N 35°30' E 139°43'0 0.1
2018-Apr-17 08:01N 35°30' E 139°43'2 4.5
2018-Apr-17 07:31N 35°28' E 139°42'1 2.1
2018-Apr-17 06:58N 35°27' E 139°42'0 0.0
2018-Apr-17 06:28N 35°27' E 139°42'0 0.0
2018-Apr-17 05:58N 35°27' E 139°42'0 0.0
2018-Apr-17 05:28N 35°27' E 139°42'0 0.0
2018-Apr-17 04:58N 35°27' E 139°42'0 0.0
2018-Apr-17 04:28N 35°27' E 139°42'0 0.0
2018-Apr-17 03:58N 35°27' E 139°42'0 0.0
2018-Apr-17 03:28N 35°27' E 139°42'0 0.0
2018-Apr-17 02:58N 35°27' E 139°42'0 0.0
2018-Apr-17 02:28N 35°27' E 139°42'0 0.0
2018-Apr-17 01:58N 35°27' E 139°42'0 0.0
2018-Apr-17 01:28N 35°27' E 139°42'0 0.1
2018-Apr-17 00:58N 35°27' E 139°42'3 5.5
2018-Apr-17 00:30N 35°28' E 139°39'0 0.2
2018-Apr-17 00:00N 35°28' E 139°39'0 0.0
2018-Apr-16 23:30N 35°28' E 139°39'0 0.0
2018-Apr-16 23:00N 35°28' E 139°39'0 0.0
2018-Apr-16 22:30N 35°28' E 139°39'0 0.0
2018-Apr-16 22:00N 35°28' E 139°39'0 0.0
2018-Apr-16 21:30N 35°28' E 139°39'0 0.0
2018-Apr-16 21:00N 35°28' E 139°39'2 4.4
2018-Apr-16 20:30N 35°27' E 139°41'0 0.6
2018-Apr-16 19:58N 35°27' E 139°42'2 5.4
2018-Apr-16 19:30N 35°25' E 139°43'510.0
2018-Apr-16 19:00N 35°20' E 139°43'510.5
2018-Apr-16 18:30N 35°15' E 139°47'510.1
2018-Apr-16 18:00N 35°10' E 139°46'5 9.3
2018-Apr-16 17:30N 35°06' E 139°43'5 9.6
2018-Apr-16 17:01N 35°03' E 139°38'510.2
2018-Apr-16 16:31N 34°60' E 139°34'610.9
2018-Apr-16 15:58N 34°56' E 139°28'711.2
2018-Apr-16 15:18N 34°51' E 139°21'510.9
2018-Apr-16 14:53N 34°48' E 139°17'1010.7
2018-Apr-16 13:55N 34°42' E 139°07'3 6.9
2018-Apr-16 13:26N 34°40' E 139°04'610.4
2018-Apr-16 12:50N 34°36' E 138°58'1110.5
2018-Apr-16 11:44N 34°34' E 138°44'310.0
2018-Apr-16 11:29N 34°33' E 138°41'610.5
2018-Apr-16 10:56N 34°33' E 138°34'510.2
2018-Apr-16 10:29N 34°33' E 138°28'510.5
2018-Apr-16 09:59N 34°32' E 138°22'511.0
2018-Apr-16 09:30N 34°31' E 138°16'163 8.8
2018-Apr-15 14:56N 33°49' E 135°05'510.7
2018-Apr-15 14:30N 33°52' E 135°02'510.7
2018-Apr-15 14:00N 33°56' E 134°58'610.7
2018-Apr-15 13:24N 34°01' E 134°53'410.6
2018-Apr-15 13:00N 34°04' E 134°49'510.4
2018-Apr-15 12:29N 34°08' E 134°45'510.5
2018-Apr-15 12:00N 34°12' E 134°41'5 9.7
2018-Apr-15 11:30N 34°15' E 134°37'4 8.3
2018-Apr-15 10:59N 34°17' E 134°32'0 0.0
2018-Apr-15 10:26N 34°17' E 134°32'0 0.0
2018-Apr-15 09:56N 34°17' E 134°32'0 0.0
2018-Apr-15 09:29N 34°17' E 134°32'0 0.0
2018-Apr-15 08:56N 34°17' E 134°32'0 0.0
2018-Apr-15 08:26N 34°17' E 134°32'0 0.0
2018-Apr-15 07:50N 34°17' E 134°32'0 0.0
2018-Apr-15 07:26N 34°17' E 134°32'0 0.0
2018-Apr-15 06:56N 34°17' E 134°32'2 3.9
2018-Apr-15 06:31N 34°18' E 134°30'510.3
2018-Apr-15 06:00N 34°20' E 134°25'610.5
2018-Apr-15 05:29N 34°22' E 134°18'611.5
2018-Apr-15 04:56N 34°25' E 134°11'7610.6
2018-Apr-14 21:46N 33°60' E 132°45'311.4
2018-Apr-14 21:30N 33°57' E 132°43'611.3
2018-Apr-14 20:57N 33°53' E 132°37'610.8
2018-Apr-14 20:22N 33°49' E 132°32'410.7
2018-Apr-14 19:59N 33°46' E 132°29'610.5
2018-Apr-14 19:25N 33°42' E 132°24'410.2
2018-Apr-14 19:01N 33°38' E 132°20'5 9.9
2018-Apr-14 18:30N 33°35' E 132°16'14 9.5
2018-Apr-14 17:01N 33°25' E 132°04'0 9.5
2018-Apr-14 16:59N 33°25' E 132°04'4 8.6
2018-Apr-14 16:30N 33°22' E 132°01'3 6.5
2018-Apr-14 16:00N 33°18' E 132°00'8 7.8
2018-Apr-14 15:00N 33°11' E 131°57'2 0.4
2018-Apr-14 09:56N 33°11' E 131°55'10 8.9
2018-Apr-14 08:46N 33°21' E 131°50'2 9.1
2018-Apr-14 08:30N 33°23' E 131°50'4 8.4
2018-Apr-14 08:00N 33°27' E 131°49'4 7.8
2018-Apr-14 07:30N 33°31' E 131°48'4 8.3
2018-Apr-14 07:00N 33°35' E 131°46'5 9.2
2018-Apr-14 06:27N 33°39' E 131°43'4 9.0
2018-Apr-14 05:59N 33°42' E 131°39'510.0
2018-Apr-14 05:30N 33°43' E 131°33'510.9
2018-Apr-14 05:00N 33°44' E 131°27'510.8
2018-Apr-14 04:30N 33°46' E 131°21'510.9
2018-Apr-14 04:00N 33°47' E 131°14'510.7
2018-Apr-14 03:30N 33°48' E 131°08'510.7
2018-Apr-14 03:00N 33°48' E 131°01'1 2.9
2018-Apr-14 02:30N 33°47' E 131°00'0 0.0
2018-Apr-14 02:00N 33°47' E 131°00'0 0.0
2018-Apr-14 01:30N 33°47' E 131°00'0 0.0
2018-Apr-14 01:00N 33°47' E 131°00'0 0.0
2018-Apr-14 00:27N 33°47' E 131°00'0 0.0
2018-Apr-14 00:00N 33°47' E 131°00'0 0.0
2018-Apr-13 23:30N 33°47' E 131°00'0 0.0
2018-Apr-13 23:00N 33°47' E 131°00'0 0.9
2018-Apr-13 22:30N 33°47' E 131°01'3 5.6
2018-Apr-13 22:00N 33°48' E 131°04'0 0.1
2018-Apr-13 21:30N 33°48' E 131°04'0 0.0
2018-Apr-13 21:00N 33°48' E 131°04'0 0.0
2018-Apr-13 20:30N 33°48' E 131°04'0 0.0
2018-Apr-13 20:00N 33°48' E 131°04'0 0.0
2018-Apr-13 19:30N 33°48' E 131°04'0 0.0
2018-Apr-13 19:00N 33°48' E 131°04'0 0.0
2018-Apr-13 18:30N 33°48' E 131°04'0 0.0
2018-Apr-13 18:00N 33°48' E 131°04'0 0.0
2018-Apr-13 17:27N 33°48' E 131°04'0 0.0
2018-Apr-13 17:00N 33°48' E 131°04'0 0.0
2018-Apr-13 16:30N 33°48' E 131°04'4 7.4
2018-Apr-13 16:00N 33°52' E 131°04'511.0
2018-Apr-13 15:31N 33°57' E 131°02'5 9.4
2018-Apr-13 15:00N 33°57' E 130°56'3 6.8
2018-Apr-13 14:30N 33°56' E 130°53'5 9.8
2018-Apr-13 14:00N 33°58' E 130°47'510.5
2018-Apr-13 13:30N 33°57' E 130°41'510.3
2018-Apr-13 13:00N 33°57' E 130°35'510.0
2018-Apr-13 12:30N 33°56' E 130°29'5 9.6
2018-Apr-13 12:00N 33°52' E 130°25'5 9.8
2018-Apr-13 11:30N 33°48' E 130°21'9 8.9
2018-Apr-13 10:30N 33°42' E 130°13'4 8.3
2018-Apr-13 10:00N 33°40' E 130°09'4 8.2
2018-Apr-13 09:30N 33°37' E 130°05'4 7.9
2018-Apr-13 09:00N 33°36' E 130°01'4 8.0
2018-Apr-13 08:30N 33°35' E 129°56'8 0.6
2018-Apr-12 19:07N 33°43' E 129°59'312.4
2018-Apr-12 18:51N 33°44' E 130°02'512.5
2018-Apr-12 18:25N 33°47' E 130°08'512.3
2018-Apr-12 18:00N 33°50' E 130°13'612.2
2018-Apr-12 17:30N 33°53' E 130°19'611.7
2018-Apr-12 17:00N 33°56' E 130°25'611.6
2018-Apr-12 16:30N 33°57' E 130°32'611.2
2018-Apr-12 16:00N 33°57' E 130°39'510.8
2018-Apr-12 15:30N 33°58' E 130°45'510.5
2018-Apr-12 15:00N 33°57' E 130°51'3 6.3
2018-Apr-12 14:30N 33°54' E 130°52'0 0.0
2018-Apr-12 13:58N 33°54' E 130°52'0 0.0
2018-Apr-11 09:26N 33°54' E 130°52'3 7.2
2018-Apr-11 09:01N 33°55' E 130°56'510.5
2018-Apr-11 08:30N 33°59' E 131°00'611.1
2018-Apr-11 08:01N 33°56' E 131°06'510.7
2018-Apr-11 07:30N 33°55' E 131°12'2 4.3
2018-Apr-11 06:56N 33°57' E 131°14'0 0.0
2018-Apr-11 06:26N 33°57' E 131°14'0 0.0
2018-Apr-11 05:56N 33°57' E 131°14'0 0.0
2018-Apr-11 05:20N 33°57' E 131°14'0 0.0
2018-Apr-11 04:56N 33°57' E 131°14'0 0.0
2018-Apr-11 04:29N 33°57' E 131°14'0 0.0
2018-Apr-11 03:59N 33°57' E 131°14'0 0.0
2018-Apr-11 03:29N 33°57' E 131°14'0 0.0
2018-Apr-11 02:50N 33°57' E 131°14'0 0.0
2018-Apr-11 02:29N 33°57' E 131°14'0 0.0
2018-Apr-11 01:59N 33°57' E 131°14'0 0.0
2018-Apr-11 01:26N 33°57' E 131°14'0 0.0
2018-Apr-11 00:44N 33°57' E 131°14'0 0.0
2018-Apr-11 00:26N 33°57' E 131°14'0 0.0
2018-Apr-10 23:59N 33°57' E 131°14'0 0.0
2018-Apr-10 23:26N 33°57' E 131°14'0 0.0
2018-Apr-10 22:59N 33°57' E 131°14'0 0.0
2018-Apr-10 22:29N 33°57' E 131°14'1 1.7
2018-Apr-10 22:00N 33°56' E 131°14'0 0.0
2018-Apr-10 04:00N 33°56' E 131°14'0 0.0
2018-Apr-10 03:30N 33°56' E 131°14'0 0.0
2018-Apr-10 03:00N 33°56' E 131°14'0 0.0
2018-Apr-10 02:30N 33°56' E 131°14'0 0.0
2018-Apr-10 01:57N 33°56' E 131°14'0 0.0
2018-Apr-10 01:30N 33°56' E 131°14'0 0.0
2018-Apr-10 01:00N 33°56' E 131°14'0 0.0
2018-Apr-10 00:27N 33°56' E 131°14'0 0.0
2018-Apr-09 23:57N 33°56' E 131°14'0 0.0
2018-Apr-09 23:30N 33°56' E 131°14'0 0.0
2018-Apr-09 23:00N 33°56' E 131°14'0 0.0
2018-Apr-09 22:30N 33°56' E 131°14'0 0.0
2018-Apr-09 22:00N 33°56' E 131°14'0 0.0
2018-Apr-09 21:30N 33°56' E 131°14'0 0.0
2018-Apr-09 21:00N 33°56' E 131°14'0 0.0
2018-Apr-09 20:30N 33°56' E 131°14'0 0.0
2018-Apr-09 20:00N 33°56' E 131°14'0 0.0
2018-Apr-09 19:30N 33°56' E 131°14'0 0.0
2018-Apr-09 19:00N 33°56' E 131°14'0 0.0
2018-Apr-09 18:30N 33°56' E 131°14'0 0.0
2018-Apr-09 18:00N 33°56' E 131°14'0 0.0
2018-Apr-09 17:30N 33°56' E 131°14'0 0.0
2018-Apr-09 17:00N 33°56' E 131°14'0 0.0
2018-Apr-09 16:30N 33°56' E 131°14'0 0.0
2018-Apr-09 16:00N 33°56' E 131°14'0 0.0
2018-Apr-09 15:30N 33°56' E 131°14'0 0.0
2018-Apr-09 15:00N 33°56' E 131°14'0 0.0
2018-Apr-09 14:30N 33°56' E 131°14'0 0.0
2018-Apr-09 14:00N 33°56' E 131°14'0 0.0
2018-Apr-09 13:30N 33°56' E 131°14'0 0.0
2018-Apr-09 13:00N 33°56' E 131°14'0 0.0
2018-Apr-09 12:30N 33°56' E 131°14'0 0.0
2018-Apr-09 12:00N 33°56' E 131°14'0 0.0
2018-Apr-09 11:30N 33°56' E 131°14'  

Dump ship's entire track history